createdAt,value
2022-11-25T00:01:40.955Z,15.27
2022-11-25T00:04:11.349Z,15.48
2022-11-25T00:06:39.660Z,15.98
2022-11-25T00:09:11.653Z,15.60
2022-11-25T00:14:13.833Z,15.30
2022-11-25T00:16:46.728Z,17.27
2022-11-25T00:19:18.521Z,15.60
2022-11-25T00:21:46.924Z,15.40
2022-11-25T00:24:17.119Z,15.82
2022-11-25T00:26:46.050Z,16.90
2022-11-25T00:29:15.135Z,16.80
2022-11-25T00:31:44.031Z,16.55
2022-11-25T00:34:14.586Z,16.80
2022-11-25T00:36:44.562Z,16.23
2022-11-25T00:39:15.004Z,17.17
2022-11-25T00:42:02.019Z,16.35
2022-11-25T00:44:37.839Z,16.38
2022-11-25T00:47:09.635Z,15.23
2022-11-25T00:49:38.780Z,16.75
2022-11-25T00:52:09.395Z,15.93
2022-11-25T00:54:38.631Z,16.52
2022-11-25T00:57:07.399Z,15.90
2022-11-25T00:59:35.765Z,18.38
2022-11-25T01:02:04.832Z,17.27
2022-11-25T01:04:34.304Z,17.50
2022-11-25T01:07:03.379Z,18.25
2022-11-25T01:09:33.405Z,17.10
2022-11-25T01:12:01.772Z,16.05
2022-11-25T01:14:36.635Z,17.58
2022-11-25T01:17:06.092Z,16.63
2022-11-25T01:19:35.450Z,16.88
2022-11-25T01:22:03.877Z,17.48
2022-11-25T01:24:33.915Z,16.55
2022-11-25T01:27:02.728Z,15.20
2022-11-25T01:29:31.768Z,15.52
2022-11-25T01:32:00.332Z,16.58
2022-11-25T01:34:32.097Z,16.58
2022-11-25T01:37:00.759Z,16.90
2022-11-25T01:39:32.952Z,17.65
2022-11-25T01:42:04.515Z,16.48
2022-11-25T01:44:34.833Z,16.23
2022-11-25T01:47:12.246Z,17.15
2022-11-25T01:49:44.435Z,15.93
2022-11-25T01:52:19.383Z,16.33
2022-11-25T01:54:55.624Z,17.75
2022-11-25T01:57:29.795Z,15.55
2022-11-25T02:00:04.070Z,17.00
2022-11-25T02:02:33.878Z,16.00
2022-11-25T02:05:07.844Z,17.02
2022-11-25T02:07:37.969Z,16.52
2022-11-25T02:10:11.727Z,17.27
2022-11-25T02:12:48.156Z,16.73
2022-11-25T02:15:17.492Z,17.00
2022-11-25T02:17:46.477Z,17.33
2022-11-25T02:20:18.413Z,18.58
2022-11-25T02:22:55.663Z,18.02
2022-11-25T02:25:28.080Z,18.27
2022-11-25T02:28:03.019Z,18.70
2022-11-25T02:30:31.543Z,18.88
2022-11-25T02:33:01.947Z,18.98
2022-11-25T02:35:34.039Z,18.85
2022-11-25T02:38:09.123Z,19.75
2022-11-25T02:40:45.289Z,19.17
2022-11-25T02:43:13.848Z,18.95
2022-11-25T02:45:57.753Z,18.38
2022-11-25T02:48:46.127Z,20.08
2022-11-25T02:51:17.652Z,19.40
2022-11-25T02:53:46.654Z,18.55
2022-11-25T02:56:18.071Z,19.02
2022-11-25T02:58:46.756Z,19.42
2022-11-25T03:01:15.679Z,20.23
2022-11-25T03:03:44.371Z,19.85
2022-11-25T03:06:12.884Z,20.50
2022-11-25T03:08:41.778Z,21.92
2022-11-25T03:11:13.614Z,21.10
2022-11-25T03:13:43.904Z,21.35
2022-11-25T03:16:12.467Z,19.23
2022-11-25T03:18:40.909Z,20.50
2022-11-25T03:21:09.482Z,19.52
2022-11-25T03:23:38.458Z,20.92
2022-11-25T03:26:07.893Z,19.50
2022-11-25T03:28:36.916Z,21.40
2022-11-25T03:31:11.788Z,18.63
2022-11-25T03:33:40.583Z,19.67
2022-11-25T03:36:09.390Z,18.52
2022-11-25T03:38:38.099Z,19.35
2022-11-25T03:41:07.299Z,18.65
2022-11-25T03:43:36.001Z,18.45
2022-11-25T03:46:06.668Z,18.75
2022-11-25T03:48:35.719Z,16.00
2022-11-25T03:51:04.400Z,17.30
2022-11-25T03:53:32.935Z,17.35
2022-11-25T03:56:03.963Z,17.52
2022-11-25T03:58:32.852Z,18.50
2022-11-25T04:01:03.609Z,18.23
2022-11-25T04:03:33.917Z,18.42
2022-11-25T04:06:02.624Z,17.80
2022-11-25T04:08:32.179Z,17.88
2022-11-25T04:11:01.027Z,18.05
2022-11-25T04:13:32.575Z,16.63
2022-11-25T04:16:01.151Z,17.15
2022-11-25T04:18:29.576Z,17.48
2022-11-25T04:21:04.207Z,16.80
2022-11-25T04:23:33.476Z,17.08
2022-11-25T04:26:05.845Z,16.70
2022-11-25T04:28:39.198Z,16.67
2022-11-25T04:31:08.435Z,16.70
2022-11-25T04:33:40.005Z,17.38
2022-11-25T04:36:12.887Z,17.63
2022-11-25T04:38:41.774Z,18.05
2022-11-25T04:41:10.477Z,17.67
2022-11-25T04:43:44.075Z,18.42
2022-11-25T04:46:18.195Z,17.85
2022-11-25T04:48:52.427Z,16.30
2022-11-25T04:51:24.609Z,17.17
2022-11-25T04:53:59.300Z,16.30
2022-11-25T04:56:28.186Z,17.33
2022-11-25T04:59:14.993Z,16.38
2022-11-25T05:01:47.639Z,15.80
2022-11-25T05:04:26.271Z,15.68
2022-11-25T05:06:57.750Z,15.52
2022-11-25T05:09:27.759Z,16.73
2022-11-25T05:12:14.623Z,14.95
2022-11-25T05:14:43.479Z,13.60
2022-11-25T05:17:15.406Z,16.73
2022-11-25T05:22:18.001Z,13.52
2022-11-25T05:24:48.163Z,14.73
2022-11-25T05:27:17.370Z,14.93
2022-11-25T05:29:50.152Z,14.70
2022-11-25T05:32:23.381Z,14.85
2022-11-25T05:34:51.922Z,14.48
2022-11-25T05:37:24.517Z,12.65
2022-11-25T05:40:01.845Z,12.63
2022-11-25T05:42:36.562Z,13.70
2022-11-25T05:47:37.922Z,12.48
2022-11-25T05:50:09.488Z,12.38
2022-11-25T05:52:40.325Z,11.90
2022-11-25T05:55:09.931Z,12.35
2022-11-25T05:57:39.151Z,12.05
2022-11-25T06:00:11.826Z,12.65
2022-11-25T06:05:23.769Z,12.32
2022-11-25T06:07:54.777Z,12.43
2022-11-25T06:10:24.856Z,12.35
2022-11-25T06:12:54.605Z,13.77
2022-11-25T06:15:23.294Z,11.32
2022-11-25T06:17:54.587Z,12.45
2022-11-25T06:20:27.288Z,12.18
2022-11-25T06:22:59.213Z,12.10
2022-11-25T06:25:34.686Z,12.65
2022-11-25T06:28:12.868Z,11.50
2022-11-25T06:30:46.450Z,11.63
2022-11-25T06:33:21.935Z,11.85
2022-11-25T06:35:51.502Z,11.30
2022-11-25T06:38:21.781Z,11.27
2022-11-25T06:40:54.148Z,11.63
2022-11-25T06:43:24.855Z,11.88
2022-11-25T06:45:53.533Z,12.40
2022-11-25T06:48:22.574Z,11.88
2022-11-25T06:50:59.009Z,12.45
2022-11-25T06:53:30.764Z,12.63
2022-11-25T06:56:08.163Z,11.60
2022-11-25T06:58:37.508Z,11.25
2022-11-25T07:01:07.824Z,12.63
2022-11-25T07:03:37.175Z,11.82
2022-11-25T07:06:06.132Z,11.98
2022-11-25T07:08:35.732Z,12.07
2022-11-25T07:11:06.184Z,12.10
2022-11-25T07:13:34.921Z,11.88
2022-11-25T07:16:04.755Z,11.70
2022-11-25T07:18:36.094Z,11.02
2022-11-25T07:21:07.404Z,12.45
2022-11-25T07:23:39.085Z,11.50
2022-11-25T07:26:09.836Z,12.32
2022-11-25T07:28:39.583Z,11.95
2022-11-25T07:31:28.615Z,12.23
2022-11-25T07:34:00.788Z,12.23
2022-11-25T07:36:30.543Z,11.68
2022-11-25T07:39:04.448Z,12.30
2022-11-25T07:41:33.165Z,12.52
2022-11-25T07:44:03.266Z,12.45
2022-11-25T07:46:36.244Z,12.13
2022-11-25T07:49:07.875Z,12.00
2022-11-25T07:51:39.297Z,12.85
2022-11-25T07:54:13.906Z,13.57
2022-11-25T07:56:55.399Z,13.15
2022-11-25T07:59:27.848Z,12.40
2022-11-25T08:02:09.815Z,13.07
2022-11-25T08:04:40.129Z,14.93
2022-11-25T08:07:09.052Z,14.90
2022-11-25T08:09:39.629Z,14.68
2022-11-25T08:12:08.486Z,15.75
2022-11-25T08:14:37.602Z,14.70
2022-11-25T08:17:06.278Z,14.20
2022-11-25T08:19:36.187Z,15.40
2022-11-25T08:22:15.630Z,15.85
2022-11-25T08:24:57.253Z,15.98
2022-11-25T08:27:38.096Z,16.67
2022-11-25T08:30:22.140Z,16.27
2022-11-25T08:33:13.577Z,15.60
2022-11-25T08:36:01.089Z,15.98
2022-11-25T08:38:52.763Z,16.05
2022-11-25T08:41:38.090Z,14.10
2022-11-25T08:44:17.487Z,16.92
2022-11-25T08:46:55.339Z,16.23
2022-11-25T08:49:40.942Z,15.77
2022-11-25T08:52:21.474Z,16.05
2022-11-25T08:54:53.138Z,15.60
2022-11-25T08:57:23.368Z,15.40
2022-11-25T08:59:51.976Z,14.57
2022-11-25T09:02:21.016Z,13.80
2022-11-25T09:04:50.189Z,13.07
2022-11-25T09:07:19.515Z,13.93
2022-11-25T09:09:48.409Z,13.20
2022-11-25T09:12:17.354Z,14.48
2022-11-25T09:14:47.438Z,13.20
2022-11-25T09:17:16.714Z,13.32
2022-11-25T09:19:45.707Z,14.13
2022-11-25T09:22:14.515Z,13.30
2022-11-25T09:24:45.445Z,13.48
2022-11-25T09:27:15.127Z,13.82
2022-11-25T09:29:45.996Z,14.05
2022-11-25T09:32:16.210Z,13.07
2022-11-25T09:34:45.203Z,12.32
2022-11-25T09:37:14.182Z,12.82
2022-11-25T09:39:44.127Z,13.43
2022-11-25T09:42:48.121Z,15.57
2022-11-25T09:45:40.908Z,13.50
2022-11-25T09:48:29.441Z,14.00
2022-11-25T09:51:07.357Z,13.93
2022-11-25T09:53:45.736Z,14.05
2022-11-25T09:56:26.678Z,14.57
2022-11-25T09:59:00.960Z,14.80
2022-11-25T10:01:32.334Z,15.23
2022-11-25T10:04:09.284Z,15.05
2022-11-25T10:06:49.472Z,15.00
2022-11-25T10:09:26.086Z,15.10
2022-11-25T10:11:58.186Z,15.73
2022-11-25T10:14:33.754Z,16.23
2022-11-25T10:17:12.941Z,15.55
2022-11-25T10:19:52.837Z,15.57
2022-11-25T10:22:26.161Z,16.38
2022-11-25T10:25:00.548Z,14.93
2022-11-25T10:27:39.951Z,16.45
2022-11-25T10:30:19.860Z,15.98
2022-11-25T10:32:59.215Z,16.52
2022-11-25T10:35:38.002Z,17.30
2022-11-25T10:38:21.477Z,16.23
2022-11-25T10:40:53.900Z,15.55
2022-11-25T10:43:27.301Z,15.35
2022-11-25T10:46:12.322Z,16.30
2022-11-25T10:48:54.804Z,16.40
2022-11-25T10:51:38.780Z,17.70
2022-11-25T10:54:15.515Z,18.38
2022-11-25T10:56:48.630Z,16.65
2022-11-25T10:59:25.882Z,19.48
2022-11-25T11:02:07.411Z,22.17
2022-11-25T11:04:38.163Z,26.45
2022-11-25T11:07:11.306Z,25.80
2022-11-25T11:09:42.129Z,23.05
2022-11-25T11:12:22.559Z,17.30
2022-11-25T11:14:52.669Z,17.05
2022-11-25T11:17:36.841Z,18.02
2022-11-25T11:20:25.536Z,20.25
2022-11-25T11:23:09.086Z,20.38
2022-11-25T11:25:56.477Z,20.75
2022-11-25T11:28:33.413Z,22.20
2022-11-25T11:31:19.097Z,24.80
2022-11-25T11:34:04.876Z,24.85
2022-11-25T11:36:53.434Z,22.45
2022-11-25T11:42:33.434Z,20.45
2022-11-25T11:45:14.009Z,21.70
2022-11-25T11:47:55.990Z,20.15
2022-11-25T11:53:06.314Z,19.00
2022-11-25T11:56:00.307Z,18.23
2022-11-25T11:58:58.894Z,18.52
2022-11-25T12:01:40.352Z,19.13
2022-11-25T12:04:19.186Z,18.80
2022-11-25T12:07:07.931Z,19.92
2022-11-25T12:09:49.287Z,19.42
2022-11-25T12:12:23.031Z,17.67
2022-11-25T12:15:03.312Z,19.02
2022-11-25T12:17:48.329Z,19.48
2022-11-25T12:20:23.834Z,19.55
2022-11-25T12:23:02.335Z,20.23
2022-11-25T12:25:36.194Z,22.35
2022-11-25T12:28:09.335Z,22.38
2022-11-25T12:30:46.294Z,22.48
2022-11-25T12:33:21.831Z,21.73
2022-11-25T12:36:01.132Z,24.98
2022-11-25T12:38:40.995Z,26.08
2022-11-25T12:41:24.718Z,24.30
2022-11-25T12:44:02.735Z,21.30
2022-11-25T12:46:38.427Z,21.45
2022-11-25T12:49:17.182Z,21.25
2022-11-25T12:52:32.604Z,21.67
2022-11-25T12:55:15.770Z,19.63
2022-11-25T12:58:23.048Z,19.95
2022-11-25T13:01:33.048Z,19.08
2022-11-25T13:04:29.946Z,18.42
2022-11-25T13:07:23.974Z,19.92
2022-11-25T13:10:20.560Z,19.55
2022-11-25T13:13:06.179Z,20.88
2022-11-25T13:15:41.493Z,20.08
2022-11-25T13:18:18.111Z,19.98
2022-11-25T13:20:52.152Z,21.80
2022-11-25T13:23:29.749Z,20.40
2022-11-25T13:26:37.113Z,21.52
2022-11-25T13:29:44.720Z,23.92
2022-11-25T13:32:44.650Z,22.02
2022-11-25T13:35:52.031Z,21.92
2022-11-25T13:39:05.872Z,21.00
2022-11-25T13:41:46.429Z,22.35
2022-11-25T13:44:24.162Z,21.58
2022-11-25T13:46:54.888Z,21.55
2022-11-25T13:49:44.303Z,21.10
2022-11-25T13:52:33.345Z,20.08
2022-11-25T13:55:22.441Z,20.80
2022-11-25T13:58:18.087Z,22.10
2022-11-25T14:01:06.998Z,19.25
2022-11-25T14:04:00.467Z,19.55
2022-11-25T14:07:04.227Z,18.08
2022-11-25T14:09:46.435Z,19.98
2022-11-25T14:12:58.009Z,19.98
2022-11-25T14:16:06.907Z,19.67
2022-11-25T14:22:01.734Z,20.85
2022-11-25T14:24:37.237Z,20.98
2022-11-25T14:27:14.543Z,21.98
2022-11-25T14:29:50.520Z,20.95
2022-11-25T14:32:26.468Z,21.70
2022-11-25T14:35:04.928Z,22.90
2022-11-25T14:37:41.045Z,22.90
2022-11-25T14:40:20.117Z,24.02
2022-11-25T14:42:53.856Z,24.67
2022-11-25T14:45:27.282Z,24.38
2022-11-25T14:47:58.131Z,22.48
2022-11-25T14:50:35.260Z,23.80
2022-11-25T14:53:08.912Z,24.80
2022-11-25T14:55:39.790Z,22.60
2022-11-25T14:58:13.960Z,22.98
2022-11-25T15:01:02.252Z,23.48
2022-11-25T15:03:31.168Z,23.25
2022-11-25T15:06:08.000Z,23.42
2022-11-25T15:08:41.478Z,22.67
2022-11-25T15:11:15.850Z,23.30
2022-11-25T15:13:46.263Z,24.88
2022-11-25T15:16:20.365Z,24.02
2022-11-25T15:18:52.092Z,24.50
2022-11-25T15:21:24.303Z,25.95
2022-11-25T15:23:53.273Z,23.58
2022-11-25T15:26:27.178Z,25.15
2022-11-25T15:28:57.311Z,24.92
2022-11-25T15:31:31.921Z,25.33
2022-11-25T15:34:03.592Z,26.25
2022-11-25T15:36:32.612Z,27.33
2022-11-25T15:39:16.137Z,23.83
2022-11-25T15:41:47.155Z,22.30
2022-11-25T15:44:23.087Z,21.52
2022-11-25T15:47:01.749Z,20.63
2022-11-25T15:49:31.133Z,18.48
2022-11-25T15:52:05.056Z,20.90
2022-11-25T15:54:42.695Z,20.65
2022-11-25T15:57:19.144Z,24.23
2022-11-25T15:59:50.495Z,24.33
2022-11-25T16:02:54.668Z,24.13
2022-11-25T16:05:33.414Z,23.73
2022-11-25T16:08:16.750Z,24.25
2022-11-25T16:10:56.951Z,23.08
2022-11-25T16:13:39.825Z,24.38
2022-11-25T16:19:06.947Z,23.77
2022-11-25T16:21:45.946Z,28.67
2022-11-25T16:24:27.974Z,33.13
2022-11-25T16:29:32.945Z,24.60
2022-11-25T16:32:02.485Z,25.30
2022-11-25T16:34:33.459Z,23.98
2022-11-25T16:37:02.452Z,21.83
2022-11-25T16:39:31.179Z,22.85
2022-11-25T16:42:04.391Z,22.85
2022-11-25T16:44:35.468Z,21.77
2022-11-25T16:47:04.888Z,20.77
2022-11-25T16:49:35.405Z,22.95
2022-11-25T16:52:04.779Z,22.03
2022-11-25T16:54:34.125Z,22.42
2022-11-25T16:57:06.026Z,20.45
2022-11-25T16:59:38.594Z,22.23
2022-11-25T17:02:17.456Z,22.85
2022-11-25T17:04:48.717Z,24.05
2022-11-25T17:07:36.023Z,22.52
2022-11-25T17:10:06.224Z,21.98
2022-11-25T17:12:36.763Z,22.65
2022-11-25T17:17:41.280Z,21.70
2022-11-25T17:20:17.240Z,23.33
2022-11-25T17:22:47.628Z,24.55
2022-11-25T17:25:21.599Z,23.38
2022-11-25T17:27:51.803Z,21.25
2022-11-25T17:30:23.665Z,22.33
2022-11-25T17:32:59.911Z,27.17
2022-11-25T17:35:30.978Z,25.40
2022-11-25T17:38:01.832Z,23.83
2022-11-25T17:40:33.058Z,28.02
2022-11-25T17:43:02.030Z,31.80
2022-11-25T17:45:33.613Z,31.10
2022-11-25T17:50:32.738Z,28.30
2022-11-25T17:53:04.636Z,26.17
2022-11-25T17:55:34.843Z,23.45
2022-11-25T17:58:04.138Z,26.05
2022-11-25T18:00:35.169Z,23.63
2022-11-25T18:03:04.831Z,23.65
2022-11-25T18:05:36.312Z,21.38
2022-11-25T18:08:05.318Z,20.88
2022-11-25T18:10:34.384Z,21.02
2022-11-25T18:13:04.489Z,21.23
2022-11-25T18:15:35.191Z,20.13
2022-11-25T18:18:05.465Z,20.55
2022-11-25T18:20:35.845Z,20.63
2022-11-25T18:23:04.895Z,21.38
2022-11-25T18:25:35.391Z,21.38
2022-11-25T18:28:06.091Z,22.27
2022-11-25T18:30:36.840Z,23.57
2022-11-25T18:33:26.377Z,21.83
2022-11-25T18:36:07.069Z,23.20
2022-11-25T18:39:06.401Z,23.73
2022-11-25T18:41:59.985Z,22.48
2022-11-25T18:47:48.041Z,23.17
2022-11-25T18:50:42.513Z,23.15
2022-11-25T18:53:26.962Z,21.83
2022-11-25T18:56:17.883Z,21.48
2022-11-25T18:58:54.745Z,24.58
2022-11-25T19:01:28.748Z,24.38
2022-11-25T19:04:04.485Z,23.52
2022-11-25T19:06:45.214Z,23.92
2022-11-25T19:09:27.959Z,23.13
2022-11-25T19:12:05.697Z,22.73
2022-11-25T19:14:44.231Z,23.23
2022-11-25T19:17:34.417Z,24.88
2022-11-25T19:20:31.159Z,25.35
2022-11-25T19:23:19.418Z,23.80
2022-11-25T19:26:04.345Z,23.95
2022-11-25T19:28:36.240Z,25.85
2022-11-25T19:31:24.952Z,22.52
2022-11-25T19:34:07.971Z,23.20
2022-11-25T19:36:47.535Z,23.33
2022-11-25T19:39:27.000Z,25.30
2022-11-25T19:42:07.604Z,23.00
2022-11-25T19:44:53.274Z,24.60
2022-11-25T19:47:33.070Z,23.55
2022-11-25T19:50:09.141Z,23.65
2022-11-25T19:52:47.382Z,22.75
2022-11-25T19:55:34.002Z,22.60
2022-11-25T19:58:08.226Z,23.67
2022-11-25T20:00:39.363Z,23.75
2022-11-25T20:03:17.846Z,23.30
2022-11-25T20:05:47.625Z,23.58
2022-11-25T20:08:20.356Z,23.98
2022-11-25T20:10:49.891Z,22.90
2022-11-25T20:13:20.700Z,24.88
2022-11-25T20:18:23.921Z,22.88
2022-11-25T20:21:01.142Z,22.30
2022-11-25T20:23:38.605Z,22.25
2022-11-25T20:26:16.460Z,24.33
2022-11-25T20:28:48.308Z,25.17
2022-11-25T20:31:18.232Z,23.98
2022-11-25T20:33:56.632Z,22.52
2022-11-25T20:36:45.247Z,23.58
2022-11-25T20:39:24.060Z,24.75
2022-11-25T20:42:03.678Z,24.23
2022-11-25T20:44:42.647Z,23.85
2022-11-25T20:47:20.770Z,25.58
2022-11-25T20:49:58.177Z,24.77
2022-11-25T20:52:44.571Z,23.88
2022-11-25T20:55:25.149Z,23.50
2022-11-25T20:58:01.313Z,23.23
2022-11-25T21:00:55.566Z,23.88
2022-11-25T21:03:30.949Z,23.77
2022-11-25T21:06:20.394Z,24.27
2022-11-25T21:09:07.133Z,24.30
2022-11-25T21:11:48.408Z,24.83
2022-11-25T21:14:38.843Z,24.38
2022-11-25T21:17:18.832Z,25.10
2022-11-25T21:19:54.775Z,28.15
2022-11-25T21:22:41.469Z,27.90
2022-11-25T21:25:25.739Z,26.63
2022-11-25T21:28:09.921Z,25.48
2022-11-25T21:30:56.705Z,25.40
2022-11-25T21:33:35.720Z,25.20
2022-11-25T21:36:20.871Z,26.35
2022-11-25T21:39:04.305Z,25.35
2022-11-25T21:41:39.261Z,27.38
2022-11-25T21:44:10.033Z,27.60
2022-11-25T21:46:38.757Z,26.40
2022-11-25T21:49:12.839Z,26.85
2022-11-25T21:51:43.047Z,27.80
2022-11-25T21:54:12.352Z,26.60
2022-11-25T21:56:41.216Z,26.75
2022-11-25T21:59:19.995Z,25.08
2022-11-25T22:01:49.011Z,26.73
2022-11-25T22:04:21.121Z,24.67
2022-11-25T22:06:51.109Z,23.10
2022-11-25T22:09:20.403Z,23.80
2022-11-25T22:11:53.239Z,24.75
2022-11-25T22:14:29.082Z,25.00
2022-11-25T22:16:58.952Z,24.27
2022-11-25T22:19:29.933Z,24.00
2022-11-25T22:21:59.261Z,23.10
2022-11-25T22:24:28.376Z,24.83
2022-11-25T22:26:59.275Z,24.88
2022-11-25T22:29:34.453Z,24.83
2022-11-25T22:32:09.662Z,23.20
2022-11-25T22:34:43.418Z,23.00
2022-11-25T22:37:18.454Z,22.80
2022-11-25T22:39:47.848Z,23.45
2022-11-25T22:42:21.490Z,22.00
2022-11-25T22:44:51.498Z,22.33
2022-11-25T22:47:28.370Z,22.35
2022-11-25T22:49:58.736Z,23.00
2022-11-25T22:52:31.271Z,23.08
2022-11-25T22:55:03.851Z,21.73
2022-11-25T22:57:32.519Z,21.90
2022-11-25T23:00:01.052Z,22.63
2022-11-25T23:02:35.222Z,22.23
2022-11-25T23:05:15.781Z,21.05
2022-11-25T23:07:45.293Z,20.45
2022-11-25T23:10:19.781Z,20.42
2022-11-25T23:12:49.033Z,22.30
2022-11-25T23:15:19.340Z,22.42
2022-11-25T23:17:50.929Z,21.27
2022-11-25T23:20:24.571Z,21.90
2022-11-25T23:22:54.155Z,22.50
2022-11-25T23:25:24.579Z,19.83
2022-11-25T23:27:53.679Z,21.15
2022-11-25T23:30:24.762Z,20.13
2022-11-25T23:32:55.143Z,21.47
2022-11-25T23:35:31.426Z,22.17
2022-11-25T23:38:00.953Z,22.30
2022-11-25T23:40:30.195Z,19.25
2022-11-25T23:42:59.027Z,20.27
2022-11-25T23:45:28.869Z,21.23
2022-11-25T23:47:58.545Z,20.13
2022-11-25T23:50:32.452Z,20.35
2022-11-25T23:53:05.077Z,19.33
2022-11-25T23:55:37.321Z,20.73
2022-11-25T23:58:15.131Z,19.90
